sensor_id;sensor_type;location;lat;lon;timestamp;P1;durP1;ratioP1;P2;durP2;ratioP2
11496;SDS011;5805;51.542;7.230;2023-07-29T00:02:13;3.15;;;2.00;;
11496;SDS011;5805;51.542;7.230;2023-07-29T00:04:38;4.35;;;1.88;;
11496;SDS011;5805;51.542;7.230;2023-07-29T00:07:04;2.40;;;2.10;;
11496;SDS011;5805;51.542;7.230;2023-07-29T00:09:31;2.95;;;1.80;;
11496;SDS011;5805;51.542;7.230;2023-07-29T00:11:57;2.88;;;1.70;;
11496;SDS011;5805;51.542;7.230;2023-07-29T00:14:22;1.92;;;1.83;;
11496;SDS011;5805;51.542;7.230;2023-07-29T00:16:48;3.22;;;2.00;;
11496;SDS011;5805;51.542;7.230;2023-07-29T00:19:14;1.88;;;1.77;;
11496;SDS011;5805;51.542;7.230;2023-07-29T00:21:39;2.08;;;1.88;;
11496;SDS011;5805;51.542;7.230;2023-07-29T00:24:05;2.55;;;2.03;;
11496;SDS011;5805;51.542;7.230;2023-07-29T00:26:32;1.80;;;1.60;;
11496;SDS011;5805;51.542;7.230;2023-07-29T00:28:58;3.90;;;2.00;;
11496;SDS011;5805;51.542;7.230;2023-07-29T00:31:24;1.60;;;1.50;;
11496;SDS011;5805;51.542;7.230;2023-07-29T00:33:49;2.55;;;1.88;;
11496;SDS011;5805;51.542;7.230;2023-07-29T00:36:15;1.73;;;1.60;;
11496;SDS011;5805;51.542;7.230;2023-07-29T00:38:40;3.03;;;1.77;;
11496;SDS011;5805;51.542;7.230;2023-07-29T00:41:06;2.13;;;1.90;;
11496;SDS011;5805;51.542;7.230;2023-07-29T00:43:34;2.97;;;2.08;;
11496;SDS011;5805;51.542;7.230;2023-07-29T00:46:00;3.20;;;2.00;;
11496;SDS011;5805;51.542;7.230;2023-07-29T00:48:25;2.78;;;2.10;;
11496;SDS011;5805;51.542;7.230;2023-07-29T00:50:51;2.25;;;2.05;;
11496;SDS011;5805;51.542;7.230;2023-07-29T00:53:17;2.08;;;1.83;;
11496;SDS011;5805;51.542;7.230;2023-07-29T00:55:43;3.42;;;2.20;;
11496;SDS011;5805;51.542;7.230;2023-07-29T00:58:09;2.42;;;1.75;;
11496;SDS011;5805;51.542;7.230;2023-07-29T01:00:36;2.60;;;2.13;;
11496;SDS011;5805;51.542;7.230;2023-07-29T01:03:02;2.33;;;2.13;;
11496;SDS011;5805;51.542;7.230;2023-07-29T01:05:29;3.42;;;2.30;;
11496;SDS011;5805;51.542;7.230;2023-07-29T01:08:03;3.58;;;2.40;;
11496;SDS011;5805;51.542;7.230;2023-07-29T01:10:37;2.40;;;2.10;;
11496;SDS011;5805;51.542;7.230;2023-07-29T01:13:10;2.92;;;2.50;;
11496;SDS011;5805;51.542;7.230;2023-07-29T01:15:46;2.30;;;2.10;;
11496;SDS011;5805;51.542;7.230;2023-07-29T01:18:18;3.08;;;2.20;;
11496;SDS011;5805;51.542;7.230;2023-07-29T01:20:47;3.70;;;2.10;;
11496;SDS011;5805;51.542;7.230;2023-07-29T01:23:23;3.97;;;2.20;;
11496;SDS011;5805;51.542;7.230;2023-07-29T01:25:49;3.13;;;2.33;;
11496;SDS011;5805;51.542;7.230;2023-07-29T01:28:14;2.40;;;2.20;;
11496;SDS011;5805;51.542;7.230;2023-07-29T01:30:40;6.13;;;2.25;;
11496;SDS011;5805;51.542;7.230;2023-07-29T01:33:09;2.45;;;2.00;;
11496;SDS011;5805;51.542;7.230;2023-07-29T01:35:42;2.78;;;2.30;;
11496;SDS011;5805;51.542;7.230;2023-07-29T01:38:12;2.40;;;2.20;;
11496;SDS011;5805;51.542;7.230;2023-07-29T01:40:43;2.33;;;2.13;;
11496;SDS011;5805;51.542;7.230;2023-07-29T01:43:09;2.58;;;2.38;;
11496;SDS011;5805;51.542;7.230;2023-07-29T01:45:35;2.40;;;2.20;;
11496;SDS011;5805;51.542;7.230;2023-07-29T01:48:01;2.70;;;2.42;;
11496;SDS011;5805;51.542;7.230;2023-07-29T01:50:27;1.85;;;1.75;;
11496;SDS011;5805;51.542;7.230;2023-07-29T01:52:52;3.25;;;2.10;;
11496;SDS011;5805;51.542;7.230;2023-07-29T01:55:18;2.38;;;1.85;;
11496;SDS011;5805;51.542;7.230;2023-07-29T01:57:45;2.63;;;1.98;;
11496;SDS011;5805;51.542;7.230;2023-07-29T02:00:11;4.18;;;1.85;;
11496;SDS011;5805;51.542;7.230;2023-07-29T02:02:37;3.78;;;2.05;;
11496;SDS011;5805;51.542;7.230;2023-07-29T02:05:03;3.08;;;2.30;;
11496;SDS011;5805;51.542;7.230;2023-07-29T02:07:29;3.00;;;2.08;;
11496;SDS011;5805;51.542;7.230;2023-07-29T02:09:54;2.88;;;1.83;;
11496;SDS011;5805;51.542;7.230;2023-07-29T02:12:20;4.05;;;2.25;;
11496;SDS011;5805;51.542;7.230;2023-07-29T02:14:47;2.20;;;2.00;;
11496;SDS011;5805;51.542;7.230;2023-07-29T02:17:13;2.58;;;2.05;;
11496;SDS011;5805;51.542;7.230;2023-07-29T02:19:38;3.40;;;1.92;;
11496;SDS011;5805;51.542;7.230;2023-07-29T02:22:04;2.28;;;2.05;;
11496;SDS011;5805;51.542;7.230;2023-07-29T02:24:30;2.00;;;1.90;;
11496;SDS011;5805;51.542;7.230;2023-07-29T02:26:55;1.92;;;1.83;;
11496;SDS011;5805;51.542;7.230;2023-07-29T02:29:21;2.15;;;1.75;;
11496;SDS011;5805;51.542;7.230;2023-07-29T02:31:48;4.22;;;1.80;;
11496;SDS011;5805;51.542;7.230;2023-07-29T02:34:14;1.75;;;1.65;;
11496;SDS011;5805;51.542;7.230;2023-07-29T02:36:39;4.20;;;2.03;;
11496;SDS011;5805;51.542;7.230;2023-07-29T02:39:05;1.90;;;1.75;;
11496;SDS011;5805;51.542;7.230;2023-07-29T02:41:31;2.53;;;1.67;;
11496;SDS011;5805;51.542;7.230;2023-07-29T02:43:56;2.05;;;1.85;;
11496;SDS011;5805;51.542;7.230;2023-07-29T02:46:22;2.20;;;1.55;;
11496;SDS011;5805;51.542;7.230;2023-07-29T02:48:50;2.47;;;1.70;;
11496;SDS011;5805;51.542;7.230;2023-07-29T02:51:16;1.67;;;1.58;;
11496;SDS011;5805;51.542;7.230;2023-07-29T02:53:41;2.55;;;1.42;;
11496;SDS011;5805;51.542;7.230;2023-07-29T02:56:07;2.08;;;1.98;;
11496;SDS011;5805;51.542;7.230;2023-07-29T02:58:33;1.83;;;1.70;;
11496;SDS011;5805;51.542;7.230;2023-07-29T03:01:00;2.47;;;2.03;;
11496;SDS011;5805;51.542;7.230;2023-07-29T03:03:26;1.67;;;1.50;;
11496;SDS011;5805;51.542;7.230;2023-07-29T03:05:58;1.77;;;1.65;;
11496;SDS011;5805;51.542;7.230;2023-07-29T03:08:24;1.90;;;1.80;;
11496;SDS011;5805;51.542;7.230;2023-07-29T03:10:50;1.92;;;1.70;;
11496;SDS011;5805;51.542;7.230;2023-07-29T03:13:15;2.42;;;1.80;;
11496;SDS011;5805;51.542;7.230;2023-07-29T03:15:41;1.95;;;1.80;;
11496;SDS011;5805;51.542;7.230;2023-07-29T03:18:07;2.00;;;1.90;;
11496;SDS011;5805;51.542;7.230;2023-07-29T03:20:32;3.15;;;2.03;;
11496;SDS011;5805;51.542;7.230;2023-07-29T03:22:59;2.55;;;1.90;;
11496;SDS011;5805;51.542;7.230;2023-07-29T03:25:25;2.50;;;1.90;;
11496;SDS011;5805;51.542;7.230;2023-07-29T03:27:50;3.05;;;2.15;;
11496;SDS011;5805;51.542;7.230;2023-07-29T03:30:18;7.78;;;1.90;;
11496;SDS011;5805;51.542;7.230;2023-07-29T03:32:44;2.63;;;1.50;;
11496;SDS011;5805;51.542;7.230;2023-07-29T03:35:10;3.97;;;1.95;;
11496;SDS011;5805;51.542;7.230;2023-07-29T03:37:36;1.80;;;1.70;;
11496;SDS011;5805;51.542;7.230;2023-07-29T03:40:03;3.25;;;1.90;;
11496;SDS011;5805;51.542;7.230;2023-07-29T03:42:30;2.10;;;1.88;;
11496;SDS011;5805;51.542;7.230;2023-07-29T03:44:55;3.38;;;1.75;;
11496;SDS011;5805;51.542;7.230;2023-07-29T03:47:21;1.83;;;1.73;;
11496;SDS011;5805;51.542;7.230;2023-07-29T03:49:47;3.45;;;2.25;;
11496;SDS011;5805;51.542;7.230;2023-07-29T03:52:12;3.55;;;1.92;;
11496;SDS011;5805;51.542;7.230;2023-07-29T03:54:38;2.63;;;1.75;;
11496;SDS011;5805;51.542;7.230;2023-07-29T03:57:05;2.50;;;2.30;;
11496;SDS011;5805;51.542;7.230;2023-07-29T03:59:31;2.50;;;2.20;;
11496;SDS011;5805;51.542;7.230;2023-07-29T04:01:57;2.83;;;2.10;;
11496;SDS011;5805;51.542;7.230;2023-07-29T04:04:22;3.50;;;1.90;;
11496;SDS011;5805;51.542;7.230;2023-07-29T04:06:48;4.40;;;2.33;;
11496;SDS011;5805;51.542;7.230;2023-07-29T04:09:14;6.85;;;2.35;;
11496;SDS011;5805;51.542;7.230;2023-07-29T04:11:39;5.13;;;2.60;;
11496;SDS011;5805;51.542;7.230;2023-07-29T04:14:06;2.80;;;2.60;;
11496;SDS011;5805;51.542;7.230;2023-07-29T04:16:32;5.55;;;2.90;;
11496;SDS011;5805;51.542;7.230;2023-07-29T04:18:58;4.25;;;2.70;;
11496;SDS011;5805;51.542;7.230;2023-07-29T04:21:23;2.90;;;2.70;;
11496;SDS011;5805;51.542;7.230;2023-07-29T04:23:49;7.05;;;2.50;;
11496;SDS011;5805;51.542;7.230;2023-07-29T04:26:15;2.85;;;2.65;;
11496;SDS011;5805;51.542;7.230;2023-07-29T04:28:41;2.80;;;2.53;;
11496;SDS011;5805;51.542;7.230;2023-07-29T04:31:08;2.45;;;2.25;;
11496;SDS011;5805;51.542;7.230;2023-07-29T04:33:34;3.58;;;2.50;;
11496;SDS011;5805;51.542;7.230;2023-07-29T04:36:00;3.65;;;2.60;;
11496;SDS011;5805;51.542;7.230;2023-07-29T04:38:29;3.75;;;2.20;;
11496;SDS011;5805;51.542;7.230;2023-07-29T04:40:56;4.18;;;2.20;;
11496;SDS011;5805;51.542;7.230;2023-07-29T04:43:21;3.88;;;2.50;;
11496;SDS011;5805;51.542;7.230;2023-07-29T04:45:47;3.42;;;2.08;;
11496;SDS011;5805;51.542;7.230;2023-07-29T04:48:14;5.93;;;2.70;;
11496;SDS011;5805;51.542;7.230;2023-07-29T04:50:40;4.63;;;2.90;;
11496;SDS011;5805;51.542;7.230;2023-07-29T04:53:05;3.22;;;2.95;;
11496;SDS011;5805;51.542;7.230;2023-07-29T04:55:31;3.90;;;2.75;;
11496;SDS011;5805;51.542;7.230;2023-07-29T04:57:57;2.85;;;2.60;;
11496;SDS011;5805;51.542;7.230;2023-07-29T05:00:22;4.05;;;2.53;;
11496;SDS011;5805;51.542;7.230;2023-07-29T05:02:48;4.63;;;2.85;;
11496;SDS011;5805;51.542;7.230;2023-07-29T05:05:15;5.63;;;2.80;;
11496;SDS011;5805;51.542;7.230;2023-07-29T05:07:41;2.80;;;2.60;;
11496;SDS011;5805;51.542;7.230;2023-07-29T05:10:07;3.60;;;2.88;;
11496;SDS011;5805;51.542;7.230;2023-07-29T05:12:33;3.08;;;2.75;;
11496;SDS011;5805;51.542;7.230;2023-07-29T05:14:58;2.85;;;2.53;;
11496;SDS011;5805;51.542;7.230;2023-07-29T05:17:24;4.20;;;2.88;;
11496;SDS011;5805;51.542;7.230;2023-07-29T05:19:50;4.57;;;2.80;;
11496;SDS011;5805;51.542;7.230;2023-07-29T05:22:17;5.47;;;2.95;;
11496;SDS011;5805;51.542;7.230;2023-07-29T05:24:43;3.60;;;2.95;;
11496;SDS011;5805;51.542;7.230;2023-07-29T05:27:08;4.78;;;3.85;;
11496;SDS011;5805;51.542;7.230;2023-07-29T05:29:34;4.03;;;3.63;;
11496;SDS011;5805;51.542;7.230;2023-07-29T05:31:59;4.45;;;4.15;;
11496;SDS011;5805;51.542;7.230;2023-07-29T05:34:25;4.75;;;4.22;;
11496;SDS011;5805;51.542;7.230;2023-07-29T05:36:51;6.40;;;4.15;;
11496;SDS011;5805;51.542;7.230;2023-07-29T05:39:18;5.15;;;4.65;;
11496;SDS011;5805;51.542;7.230;2023-07-29T05:41:44;6.53;;;5.90;;
11496;SDS011;5805;51.542;7.230;2023-07-29T05:44:09;6.32;;;5.82;;
11496;SDS011;5805;51.542;7.230;2023-07-29T05:46:35;5.45;;;5.05;;
11496;SDS011;5805;51.542;7.230;2023-07-29T05:49:01;6.07;;;5.47;;
11496;SDS011;5805;51.542;7.230;2023-07-29T05:51:27;6.75;;;6.10;;
11496;SDS011;5805;51.542;7.230;2023-07-29T05:53:53;6.40;;;5.88;;
11496;SDS011;5805;51.542;7.230;2023-07-29T05:56:20;6.72;;;6.07;;
11496;SDS011;5805;51.542;7.230;2023-07-29T05:58:45;7.18;;;6.53;;
11496;SDS011;5805;51.542;7.230;2023-07-29T06:01:11;6.60;;;5.97;;
11496;SDS011;5805;51.542;7.230;2023-07-29T06:03:37;8.70;;;6.32;;
11496;SDS011;5805;51.542;7.230;2023-07-29T06:06:02;7.18;;;6.05;;
11496;SDS011;5805;51.542;7.230;2023-07-29T06:08:28;5.85;;;5.35;;
11496;SDS011;5805;51.542;7.230;2023-07-29T06:10:54;5.97;;;5.47;;
11496;SDS011;5805;51.542;7.230;2023-07-29T06:13:21;7.93;;;4.70;;
11496;SDS011;5805;51.542;7.230;2023-07-29T06:15:46;5.55;;;5.05;;
11496;SDS011;5805;51.542;7.230;2023-07-29T06:18:12;5.97;;;4.55;;
11496;SDS011;5805;51.542;7.230;2023-07-29T06:20:41;5.05;;;4.20;;
11496;SDS011;5805;51.542;7.230;2023-07-29T06:23:07;4.40;;;4.00;;
11496;SDS011;5805;51.542;7.230;2023-07-29T06:25:33;3.70;;;3.40;;
11496;SDS011;5805;51.542;7.230;2023-07-29T06:27:59;4.05;;;3.67;;
11496;SDS011;5805;51.542;7.230;2023-07-29T06:30:26;4.30;;;3.55;;
11496;SDS011;5805;51.542;7.230;2023-07-29T06:32:51;4.20;;;3.20;;
11496;SDS011;5805;51.542;7.230;2023-07-29T06:35:17;3.88;;;2.95;;
11496;SDS011;5805;51.542;7.230;2023-07-29T06:37:43;3.15;;;2.83;;
11496;SDS011;5805;51.542;7.230;2023-07-29T06:40:09;3.25;;;2.95;;
11496;SDS011;5805;51.542;7.230;2023-07-29T06:42:35;3.90;;;2.92;;
11496;SDS011;5805;51.542;7.230;2023-07-29T06:45:01;3.05;;;2.75;;
11496;SDS011;5805;51.542;7.230;2023-07-29T06:47:28;6.20;;;3.10;;
11496;SDS011;5805;51.542;7.230;2023-07-29T06:49:53;3.85;;;2.50;;
11496;SDS011;5805;51.542;7.230;2023-07-29T06:52:19;2.53;;;2.00;;
11496;SDS011;5805;51.542;7.230;2023-07-29T06:54:45;6.50;;;2.20;;
11496;SDS011;5805;51.542;7.230;2023-07-29T06:57:10;3.03;;;2.10;;
11496;SDS011;5805;51.542;7.230;2023-07-29T06:59:36;3.00;;;1.95;;
11496;SDS011;5805;51.542;7.230;2023-07-29T07:02:02;3.95;;;2.03;;
11496;SDS011;5805;51.542;7.230;2023-07-29T07:04:29;1.92;;;1.60;;
11496;SDS011;5805;51.542;7.230;2023-07-29T07:06:55;1.98;;;1.80;;
11496;SDS011;5805;51.542;7.230;2023-07-29T07:09:20;2.75;;;1.67;;
11496;SDS011;5805;51.542;7.230;2023-07-29T07:11:46;2.60;;;1.90;;
11496;SDS011;5805;51.542;7.230;2023-07-29T07:14:11;1.67;;;1.58;;
11496;SDS011;5805;51.542;7.230;2023-07-29T07:16:37;2.15;;;1.77;;
11496;SDS011;5805;51.542;7.230;2023-07-29T07:19:03;4.72;;;1.73;;
11496;SDS011;5805;51.542;7.230;2023-07-29T07:21:30;1.60;;;1.48;;
11496;SDS011;5805;51.542;7.230;2023-07-29T07:23:55;2.65;;;1.67;;
11496;SDS011;5805;51.542;7.230;2023-07-29T07:26:21;2.47;;;1.70;;
11496;SDS011;5805;51.542;7.230;2023-07-29T07:28:47;3.72;;;1.40;;
11496;SDS011;5805;51.542;7.230;2023-07-29T07:31:12;1.40;;;1.30;;
11496;SDS011;5805;51.542;7.230;2023-07-29T07:33:38;2.13;;;1.58;;
11496;SDS011;5805;51.542;7.230;2023-07-29T07:36:04;10.43;;;1.42;;
11496;SDS011;5805;51.542;7.230;2023-07-29T07:38:31;2.38;;;1.40;;
11496;SDS011;5805;51.542;7.230;2023-07-29T07:40:57;1.73;;;1.40;;
11496;SDS011;5805;51.542;7.230;2023-07-29T07:43:22;5.43;;;1.80;;
11496;SDS011;5805;51.542;7.230;2023-07-29T07:45:48;1.63;;;1.52;;
11496;SDS011;5805;51.542;7.230;2023-07-29T07:48:14;2.15;;;1.67;;
11496;SDS011;5805;51.542;7.230;2023-07-29T07:50:40;1.52;;;1.42;;
11496;SDS011;5805;51.542;7.230;2023-07-29T07:53:05;1.92;;;1.30;;
11496;SDS011;5805;51.542;7.230;2023-07-29T07:55:32;2.45;;;1.40;;
11496;SDS011;5805;51.542;7.230;2023-07-29T07:57:58;1.40;;;1.30;;
11496;SDS011;5805;51.542;7.230;2023-07-29T08:00:24;1.40;;;1.30;;
11496;SDS011;5805;51.542;7.230;2023-07-29T08:02:49;1.55;;;1.10;;
11496;SDS011;5805;51.542;7.230;2023-07-29T08:05:15;2.00;;;1.38;;
11496;SDS011;5805;51.542;7.230;2023-07-29T08:07:41;3.15;;;1.60;;
11496;SDS011;5805;51.542;7.230;2023-07-29T08:10:07;1.90;;;1.20;;
11496;SDS011;5805;51.542;7.230;2023-07-29T08:12:34;2.63;;;1.40;;
11496;SDS011;5805;51.542;7.230;2023-07-29T08:15:00;1.48;;;1.25;;
11496;SDS011;5805;51.542;7.230;2023-07-29T08:17:25;1.60;;;1.50;;
11496;SDS011;5805;51.542;7.230;2023-07-29T08:19:51;1.20;;;1.10;;
11496;SDS011;5805;51.542;7.230;2023-07-29T08:22:17;2.42;;;1.35;;
11496;SDS011;5805;51.542;7.230;2023-07-29T08:24:42;1.23;;;1.13;;
11496;SDS011;5805;51.542;7.230;2023-07-29T08:27:08;2.05;;;1.35;;
11496;SDS011;5805;51.542;7.230;2023-07-29T08:29:35;1.23;;;1.13;;
11496;SDS011;5805;51.542;7.230;2023-07-29T08:32:01;1.55;;;1.10;;
11496;SDS011;5805;51.542;7.230;2023-07-29T08:34:27;1.20;;;1.10;;
11496;SDS011;5805;51.542;7.230;2023-07-29T08:36:52;1.00;;;0.88;;
11496;SDS011;5805;51.542;7.230;2023-07-29T08:39:18;0.95;;;0.90;;
11496;SDS011;5805;51.542;7.230;2023-07-29T08:41:45;1.65;;;1.00;;
11496;SDS011;5805;51.542;7.230;2023-07-29T08:44:17;0.85;;;0.85;;
11496;SDS011;5805;51.542;7.230;2023-07-29T08:46:47;1.00;;;0.90;;
11496;SDS011;5805;51.542;7.230;2023-07-29T08:49:13;1.58;;;1.02;;
11496;SDS011;5805;51.542;7.230;2023-07-29T08:51:39;1.35;;;1.10;;
11496;SDS011;5805;51.542;7.230;2023-07-29T08:54:07;1.02;;;0.90;;
11496;SDS011;5805;51.542;7.230;2023-07-29T08:56:34;0.90;;;0.90;;
11496;SDS011;5805;51.542;7.230;2023-07-29T08:59:00;1.20;;;1.10;;
11496;SDS011;5805;51.542;7.230;2023-07-29T09:01:26;1.30;;;1.20;;
11496;SDS011;5805;51.542;7.230;2023-07-29T09:03:54;2.22;;;1.10;;
11496;SDS011;5805;51.542;7.230;2023-07-29T09:06:19;1.30;;;1.20;;
11496;SDS011;5805;51.542;7.230;2023-07-29T09:08:46;1.63;;;1.15;;
11496;SDS011;5805;51.542;7.230;2023-07-29T09:11:13;1.10;;;1.00;;
11496;SDS011;5805;51.542;7.230;2023-07-29T09:13:40;1.05;;;0.95;;
11496;SDS011;5805;51.542;7.230;2023-07-29T09:16:05;1.02;;;0.90;;
11496;SDS011;5805;51.542;7.230;2023-07-29T09:18:31;0.77;;;0.77;;
11496;SDS011;5805;51.542;7.230;2023-07-29T09:20:59;1.10;;;0.98;;
11496;SDS011;5805;51.542;7.230;2023-07-29T09:23:25;1.00;;;0.82;;
11496;SDS011;5805;51.542;7.230;2023-07-29T09:25:51;1.13;;;1.02;;
11496;SDS011;5805;51.542;7.230;2023-07-29T09:28:26;0.90;;;0.90;;
11496;SDS011;5805;51.542;7.230;2023-07-29T09:30:56;3.13;;;1.17;;
11496;SDS011;5805;51.542;7.230;2023-07-29T09:33:23;2.70;;;0.93;;
11496;SDS011;5805;51.542;7.230;2023-07-29T09:35:50;1.15;;;1.15;;
11496;SDS011;5805;51.542;7.230;2023-07-29T09:38:17;2.25;;;1.20;;
11496;SDS011;5805;51.542;7.230;2023-07-29T09:40:50;1.30;;;0.98;;
11496;SDS011;5805;51.542;7.230;2023-07-29T09:43:21;1.20;;;1.10;;
11496;SDS011;5805;51.542;7.230;2023-07-29T09:45:51;2.45;;;0.80;;
11496;SDS011;5805;51.542;7.230;2023-07-29T09:48:17;1.27;;;1.17;;
11496;SDS011;5805;51.542;7.230;2023-07-29T09:50:47;1.85;;;1.20;;
11496;SDS011;5805;51.542;7.230;2023-07-29T09:53:13;1.33;;;1.20;;
11496;SDS011;5805;51.542;7.230;2023-07-29T09:55:40;1.58;;;1.08;;
11496;SDS011;5805;51.542;7.230;2023-07-29T09:58:11;1.70;;;1.23;;
11496;SDS011;5805;51.542;7.230;2023-07-29T10:00:37;1.20;;;1.00;;
11496;SDS011;5805;51.542;7.230;2023-07-29T10:03:03;1.58;;;1.20;;
11496;SDS011;5805;51.542;7.230;2023-07-29T10:05:29;1.27;;;1.17;;
11496;SDS011;5805;51.542;7.230;2023-07-29T10:07:54;1.75;;;1.10;;
11496;SDS011;5805;51.542;7.230;2023-07-29T10:10:21;1.10;;;1.00;;
11496;SDS011;5805;51.542;7.230;2023-07-29T10:12:48;1.52;;;1.10;;
11496;SDS011;5805;51.542;7.230;2023-07-29T10:15:15;1.30;;;1.20;;
11496;SDS011;5805;51.542;7.230;2023-07-29T10:17:42;1.63;;;1.20;;
11496;SDS011;5805;51.542;7.230;2023-07-29T10:20:08;1.98;;;1.05;;
11496;SDS011;5805;51.542;7.230;2023-07-29T10:22:37;1.15;;;1.00;;
11496;SDS011;5805;51.542;7.230;2023-07-29T10:25:04;1.05;;;1.02;;
11496;SDS011;5805;51.542;7.230;2023-07-29T10:27:35;1.00;;;1.00;;
11496;SDS011;5805;51.542;7.230;2023-07-29T10:30:09;0.98;;;0.90;;
11496;SDS011;5805;51.542;7.230;2023-07-29T10:32:36;1.35;;;1.25;;
11496;SDS011;5805;51.542;7.230;2023-07-29T10:35:03;2.35;;;1.10;;
11496;SDS011;5805;51.542;7.230;2023-07-29T10:37:29;0.80;;;0.80;;
11496;SDS011;5805;51.542;7.230;2023-07-29T10:39:55;4.03;;;1.30;;
11496;SDS011;5805;51.542;7.230;2023-07-29T10:42:21;1.85;;;1.20;;
11496;SDS011;5805;51.542;7.230;2023-07-29T10:44:48;6.80;;;1.20;;
11496;SDS011;5805;51.542;7.230;2023-07-29T10:47:16;1.15;;;1.05;;
11496;SDS011;5805;51.542;7.230;2023-07-29T10:49:43;1.75;;;1.05;;
11496;SDS011;5805;51.542;7.230;2023-07-29T10:52:12;2.15;;;1.30;;
11496;SDS011;5805;51.542;7.230;2023-07-29T10:54:41;1.40;;;1.27;;
11496;SDS011;5805;51.542;7.230;2023-07-29T10:57:07;1.60;;;0.95;;
11496;SDS011;5805;51.542;7.230;2023-07-29T10:59:37;1.27;;;1.15;;
11496;SDS011;5805;51.542;7.230;2023-07-29T11:02:03;1.40;;;1.00;;
11496;SDS011;5805;51.542;7.230;2023-07-29T11:04:47;2.17;;;1.35;;
11496;SDS011;5805;51.542;7.230;2023-07-29T11:07:21;1.60;;;1.38;;
11496;SDS011;5805;51.542;7.230;2023-07-29T11:09:51;1.92;;;1.00;;
11496;SDS011;5805;51.542;7.230;2023-07-29T11:12:37;1.65;;;1.27;;
11496;SDS011;5805;51.542;7.230;2023-07-29T11:15:17;1.83;;;1.13;;
11496;SDS011;5805;51.542;7.230;2023-07-29T11:17:45;2.10;;;1.27;;
11496;SDS011;5805;51.542;7.230;2023-07-29T11:20:13;2.67;;;1.30;;
11496;SDS011;5805;51.542;7.230;2023-07-29T11:22:40;2.42;;;1.30;;
11496;SDS011;5805;51.542;7.230;2023-07-29T11:25:07;1.25;;;1.15;;
11496;SDS011;5805;51.542;7.230;2023-07-29T11:27:33;3.00;;;1.10;;
11496;SDS011;5805;51.542;7.230;2023-07-29T11:30:00;2.55;;;1.42;;
11496;SDS011;5805;51.542;7.230;2023-07-29T11:32:27;2.30;;;1.23;;
11496;SDS011;5805;51.542;7.230;2023-07-29T11:34:53;1.33;;;1.23;;
11496;SDS011;5805;51.542;7.230;2023-07-29T11:37:20;1.60;;;1.38;;
11496;SDS011;5805;51.542;7.230;2023-07-29T11:39:46;2.25;;;1.35;;
11496;SDS011;5805;51.542;7.230;2023-07-29T11:42:12;1.42;;;1.20;;
11496;SDS011;5805;51.542;7.230;2023-07-29T11:44:38;1.40;;;1.30;;
11496;SDS011;5805;51.542;7.230;2023-07-29T11:47:05;1.45;;;1.20;;
11496;SDS011;5805;51.542;7.230;2023-07-29T11:49:32;2.50;;;1.45;;
11496;SDS011;5805;51.542;7.230;2023-07-29T11:51:58;2.33;;;1.38;;
11496;SDS011;5805;51.542;7.230;2023-07-29T11:54:25;1.75;;;1.35;;
11496;SDS011;5805;51.542;7.230;2023-07-29T11:56:50;1.92;;;1.48;;
11496;SDS011;5805;51.542;7.230;2023-07-29T11:59:16;1.42;;;1.10;;
11496;SDS011;5805;51.542;7.230;2023-07-29T12:01:42;2.67;;;1.27;;
11496;SDS011;5805;51.542;7.230;2023-07-29T12:04:08;1.30;;;1.10;;
11496;SDS011;5805;51.542;7.230;2023-07-29T12:06:33;1.77;;;1.30;;
11496;SDS011;5805;51.542;7.230;2023-07-29T12:08:59;1.50;;;1.13;;
11496;SDS011;5805;51.542;7.230;2023-07-29T12:11:27;1.30;;;1.20;;
11496;SDS011;5805;51.542;7.230;2023-07-29T12:13:53;1.83;;;1.30;;
11496;SDS011;5805;51.542;7.230;2023-07-29T12:16:19;1.83;;;1.05;;
11496;SDS011;5805;51.542;7.230;2023-07-29T12:18:45;1.15;;;1.10;;
11496;SDS011;5805;51.542;7.230;2023-07-29T12:21:10;2.08;;;1.15;;
11496;SDS011;5805;51.542;7.230;2023-07-29T12:23:38;1.55;;;1.02;;
11496;SDS011;5805;51.542;7.230;2023-07-29T12:26:04;2.63;;;1.17;;
11496;SDS011;5805;51.542;7.230;2023-07-29T12:28:31;2.00;;;1.45;;
11496;SDS011;5805;51.542;7.230;2023-07-29T12:30:57;2.50;;;1.33;;
11496;SDS011;5805;51.542;7.230;2023-07-29T12:33:32;2.35;;;1.50;;
11496;SDS011;5805;51.542;7.230;2023-07-29T12:35:59;2.25;;;1.38;;
11496;SDS011;5805;51.542;7.230;2023-07-29T12:38:25;1.75;;;1.30;;
11496;SDS011;5805;51.542;7.230;2023-07-29T12:40:51;1.40;;;1.10;;
11496;SDS011;5805;51.542;7.230;2023-07-29T12:43:17;1.70;;;1.60;;
11496;SDS011;5805;51.542;7.230;2023-07-29T12:45:44;2.00;;;1.50;;
11496;SDS011;5805;51.542;7.230;2023-07-29T12:48:10;5.82;;;1.58;;
11496;SDS011;5805;51.542;7.230;2023-07-29T12:50:36;1.60;;;1.50;;
11496;SDS011;5805;51.542;7.230;2023-07-29T12:53:02;4.82;;;1.58;;
11496;SDS011;5805;51.542;7.230;2023-07-29T12:55:29;5.10;;;1.60;;
11496;SDS011;5805;51.542;7.230;2023-07-29T12:57:55;1.33;;;1.23;;
11496;SDS011;5805;51.542;7.230;2023-07-29T13:00:20;1.50;;;1.40;;
11496;SDS011;5805;51.542;7.230;2023-07-29T13:02:47;2.38;;;1.42;;
11496;SDS011;5805;51.542;7.230;2023-07-29T13:05:13;2.25;;;1.30;;
11496;SDS011;5805;51.542;7.230;2023-07-29T13:07:39;1.50;;;1.40;;
11496;SDS011;5805;51.542;7.230;2023-07-29T13:10:05;1.95;;;1.33;;
11496;SDS011;5805;51.542;7.230;2023-07-29T13:12:31;6.28;;;1.60;;
11496;SDS011;5805;51.542;7.230;2023-07-29T13:14:57;1.48;;;1.38;;
11496;SDS011;5805;51.542;7.230;2023-07-29T13:17:22;3.10;;;1.25;;
11496;SDS011;5805;51.542;7.230;2023-07-29T13:19:50;2.47;;;1.58;;
11496;SDS011;5805;51.542;7.230;2023-07-29T13:22:16;2.00;;;1.40;;
11496;SDS011;5805;51.542;7.230;2023-07-29T13:24:42;1.60;;;1.50;;
11496;SDS011;5805;51.542;7.230;2023-07-29T13:27:07;2.25;;;1.27;;
11496;SDS011;5805;51.542;7.230;2023-07-29T13:29:33;1.40;;;1.30;;
11496;SDS011;5805;51.542;7.230;2023-07-29T13:31:59;1.70;;;1.60;;
11496;SDS011;5805;51.542;7.230;2023-07-29T13:34:24;1.50;;;1.40;;
11496;SDS011;5805;51.542;7.230;2023-07-29T13:36:51;2.05;;;1.40;;
11496;SDS011;5805;51.542;7.230;2023-07-29T13:39:17;1.40;;;1.30;;
11496;SDS011;5805;51.542;7.230;2023-07-29T13:41:43;3.40;;;1.90;;
11496;SDS011;5805;51.542;7.230;2023-07-29T13:44:09;1.50;;;1.40;;
11496;SDS011;5805;51.542;7.230;2023-07-29T13:46:34;2.50;;;1.65;;
11496;SDS011;5805;51.542;7.230;2023-07-29T13:49:00;1.65;;;1.55;;
11496;SDS011;5805;51.542;7.230;2023-07-29T13:51:26;1.70;;;1.40;;
11496;SDS011;5805;51.542;7.230;2023-07-29T13:53:53;2.45;;;1.30;;
11496;SDS011;5805;51.542;7.230;2023-07-29T13:56:18;1.65;;;1.45;;
11496;SDS011;5805;51.542;7.230;2023-07-29T13:58:44;2.97;;;1.33;;
11496;SDS011;5805;51.542;7.230;2023-07-29T14:01:10;1.60;;;1.35;;
11496;SDS011;5805;51.542;7.230;2023-07-29T14:03:35;2.17;;;1.25;;
11496;SDS011;5805;51.542;7.230;2023-07-29T14:06:01;3.28;;;1.48;;
11496;SDS011;5805;51.542;7.230;2023-07-29T14:08:27;1.40;;;1.30;;
11496;SDS011;5805;51.542;7.230;2023-07-29T14:10:54;7.05;;;1.88;;
11496;SDS011;5805;51.542;7.230;2023-07-29T14:13:19;1.80;;;1.70;;
11496;SDS011;5805;51.542;7.230;2023-07-29T14:15:45;2.90;;;1.80;;
11496;SDS011;5805;51.542;7.230;2023-07-29T14:18:11;3.22;;;2.20;;
11496;SDS011;5805;51.542;7.230;2023-07-29T14:20:36;3.55;;;1.88;;
11496;SDS011;5805;51.542;7.230;2023-07-29T14:23:02;2.50;;;1.98;;
11496;SDS011;5805;51.542;7.230;2023-07-29T14:25:28;2.58;;;2.10;;
11496;SDS011;5805;51.542;7.230;2023-07-29T14:27:55;5.97;;;2.53;;
11496;SDS011;5805;51.542;7.230;2023-07-29T14:30:21;3.58;;;2.50;;
11496;SDS011;5805;51.542;7.230;2023-07-29T14:32:46;8.90;;;2.97;;
11496;SDS011;5805;51.542;7.230;2023-07-29T14:35:12;2.88;;;1.90;;
11496;SDS011;5805;51.542;7.230;2023-07-29T14:37:38;5.55;;;1.75;;
11496;SDS011;5805;51.542;7.230;2023-07-29T14:40:04;4.13;;;1.58;;
11496;SDS011;5805;51.542;7.230;2023-07-29T14:42:30;2.92;;;1.80;;
11496;SDS011;5805;51.542;7.230;2023-07-29T14:44:57;3.05;;;1.60;;
11496;SDS011;5805;51.542;7.230;2023-07-29T14:47:23;2.03;;;1.38;;
11496;SDS011;5805;51.542;7.230;2023-07-29T14:49:49;4.32;;;1.35;;
11496;SDS011;5805;51.542;7.230;2023-07-29T14:52:14;3.10;;;1.33;;
11496;SDS011;5805;51.542;7.230;2023-07-29T14:54:40;1.90;;;1.60;;
11496;SDS011;5805;51.542;7.230;2023-07-29T14:57:06;4.13;;;1.60;;